createdAt,value
2019-01-02T00:02:11.851Z,69.33
2019-01-02T00:04:38.607Z,69.66
2019-01-02T00:07:05.912Z,68.84
2019-01-02T00:09:32.649Z,68.38
2019-01-02T00:11:59.765Z,66.54
2019-01-02T00:14:26.658Z,66.54
2019-01-02T00:16:53.805Z,65.75
2019-01-02T00:19:21.204Z,64.52
2019-01-02T00:21:48.582Z,63.64
2019-01-02T00:24:15.667Z,63.64
2019-01-02T00:26:42.657Z,63.53
2019-01-02T00:29:09.544Z,63.02
2019-01-02T00:31:36.373Z,63.02
2019-01-02T00:34:03.168Z,62.94
2019-01-02T00:36:30.830Z,63.15
2019-01-02T00:39:00.689Z,63.15
2019-01-02T00:41:27.416Z,62.65
2019-01-02T00:43:54.095Z,61.60
2019-01-02T00:46:20.952Z,61.60
2019-01-02T00:48:50.346Z,62.04
2019-01-02T00:51:17.064Z,61.32
2019-01-02T00:53:43.807Z,61.32
2019-01-02T00:56:10.563Z,61.98
2019-01-02T00:58:37.557Z,62.33
2019-01-02T01:01:04.433Z,61.17
2019-01-02T01:03:31.195Z,61.03
2019-01-02T01:05:58.359Z,60.81
2019-01-02T01:08:25.237Z,60.36
2019-01-02T01:10:52.850Z,59.87
2019-01-02T01:13:19.643Z,59.87
2019-01-02T01:15:46.904Z,60.43
2019-01-02T01:18:13.820Z,59.45
2019-01-02T01:20:41.075Z,59.76
2019-01-02T01:23:07.832Z,60.48
2019-01-02T01:25:35.041Z,60.57
2019-01-02T01:28:01.819Z,60.59
2019-01-02T01:30:28.547Z,59.35
2019-01-02T01:32:55.514Z,60.49
2019-01-02T01:35:22.256Z,60.41
2019-01-02T01:37:53.863Z,61.32
2019-01-02T01:40:21.013Z,60.80
2019-01-02T01:42:47.761Z,60.57
2019-01-02T01:45:14.885Z,60.57
2019-01-02T01:47:41.719Z,61.48
2019-01-02T01:50:08.788Z,64.65
2019-01-02T01:52:35.491Z,64.65
2019-01-02T01:55:02.708Z,65.40
2019-01-02T01:57:29.832Z,65.85
2019-01-02T01:59:56.815Z,66.39
2019-01-02T02:02:24.110Z,67.78
2019-01-02T02:04:50.851Z,67.38
2019-01-02T02:07:17.876Z,67.38
2019-01-02T02:09:44.606Z,66.21
2019-01-02T02:12:11.340Z,66.94
2019-01-02T02:14:38.473Z,67.04
2019-01-02T02:17:05.184Z,65.99
2019-01-02T02:19:34.905Z,65.99
2019-01-02T02:22:04.163Z,65.50
2019-01-02T02:24:31.236Z,65.20
2019-01-02T02:26:58.323Z,65.20
2019-01-02T02:29:25.019Z,64.49
2019-01-02T02:31:52.115Z,64.75
2019-01-02T02:34:18.811Z,64.16
2019-01-02T02:36:46.032Z,64.16
2019-01-02T02:39:13.082Z,64.08
2019-01-02T02:41:40.293Z,64.08
2019-01-02T02:44:08.256Z,63.87
2019-01-02T02:46:35.462Z,63.87
2019-01-02T02:49:03.930Z,63.09
2019-01-02T02:51:31.122Z,63.31
2019-01-02T02:53:57.952Z,62.57
2019-01-02T02:56:25.253Z,62.57
2019-01-02T02:58:52.826Z,61.76
2019-01-02T03:01:20.412Z,60.71
2019-01-02T03:03:47.934Z,60.71
2019-01-02T03:06:15.151Z,62.11
2019-01-02T03:08:42.323Z,61.06
2019-01-02T03:11:09.435Z,61.06
2019-01-02T03:13:36.618Z,60.86
2019-01-02T03:16:03.746Z,61.15
2019-01-02T03:18:35.080Z,60.89
2019-01-02T03:21:02.100Z,61.28
2019-01-02T03:23:29.808Z,61.22
2019-01-02T03:26:03.187Z,61.54
2019-01-02T03:28:30.328Z,61.50
2019-01-02T03:30:57.614Z,61.50
2019-01-02T03:33:32.487Z,61.17
2019-01-02T03:36:01.221Z,61.94
2019-01-02T03:38:28.062Z,61.94
2019-01-02T03:40:54.917Z,61.83
2019-01-02T03:43:21.857Z,61.18
2019-01-02T03:45:50.944Z,61.61
2019-01-02T03:48:27.933Z,61.61
2019-01-02T03:50:54.738Z,61.28
2019-01-02T03:53:21.506Z,61.22
2019-01-02T03:55:48.229Z,62.03
2019-01-02T03:58:15.757Z,61.66
2019-01-02T04:00:42.628Z,61.63
2019-01-02T04:03:09.441Z,61.90
2019-01-02T04:05:36.182Z,61.58
2019-01-02T04:08:05.879Z,60.94
2019-01-02T04:10:32.579Z,61.20
2019-01-02T04:12:59.277Z,61.03
2019-01-02T04:15:26.085Z,61.25
2019-01-02T04:17:52.795Z,61.41
2019-01-02T04:20:19.583Z,61.41
2019-01-02T04:22:46.317Z,61.55
2019-01-02T04:25:13.014Z,61.51
2019-01-02T04:27:39.831Z,61.52
2019-01-02T04:30:09.169Z,61.00
2019-01-02T04:32:35.992Z,61.31
2019-01-02T04:35:02.804Z,61.45
2019-01-02T04:37:29.593Z,62.55
2019-01-02T04:39:56.315Z,62.55
2019-01-02T04:42:22.989Z,62.65
2019-01-02T04:44:49.796Z,62.11
2019-01-02T04:47:16.524Z,62.00
2019-01-02T04:49:43.225Z,62.00
2019-01-02T04:52:12.182Z,62.95
2019-01-02T04:54:38.892Z,62.95
2019-01-02T04:57:05.617Z,63.50
2019-01-02T04:59:32.330Z,63.50
2019-01-02T05:01:59.038Z,63.81
2019-01-02T05:04:26.008Z,63.98
2019-01-02T05:06:52.700Z,63.67
2019-01-02T05:09:19.421Z,62.64
2019-01-02T05:11:46.162Z,62.26
2019-01-02T05:14:12.862Z,62.26
2019-01-02T05:16:39.592Z,62.50
2019-01-02T05:19:06.340Z,62.71
2019-01-02T05:21:33.414Z,62.71
2019-01-02T05:24:00.161Z,62.15
2019-01-02T05:26:26.853Z,61.84
2019-01-02T05:28:53.712Z,61.84
2019-01-02T05:31:20.514Z,62.09
2019-01-02T05:33:47.253Z,62.09
2019-01-02T05:36:14.392Z,61.44
2019-01-02T05:38:41.140Z,61.35
2019-01-02T05:41:07.933Z,61.36
2019-01-02T05:43:34.767Z,61.36
2019-01-02T05:46:04.276Z,61.82
2019-01-02T05:48:31.281Z,61.46
2019-01-02T05:50:58.015Z,61.14
2019-01-02T05:53:26.135Z,61.20
2019-01-02T05:55:52.979Z,61.68
2019-01-02T05:58:19.752Z,61.68
2019-01-02T06:00:46.907Z,61.31
2019-01-02T06:03:14.312Z,61.22
2019-01-02T06:05:41.157Z,61.22
2019-01-02T06:08:07.903Z,61.71
2019-01-02T06:10:34.745Z,61.52
2019-01-02T06:13:01.576Z,61.52
2019-01-02T06:15:31.119Z,62.16
2019-01-02T06:17:57.912Z,62.16
2019-01-02T06:20:24.998Z,61.64
2019-01-02T06:22:51.802Z,62.20
2019-01-02T06:25:18.465Z,62.20
2019-01-02T06:27:45.204Z,62.21
2019-01-02T06:30:12.220Z,61.63
2019-01-02T06:32:39.059Z,61.32
2019-01-02T06:35:06.726Z,61.63
2019-01-02T06:37:33.540Z,61.63
2019-01-02T06:40:00.619Z,61.98
2019-01-02T06:42:27.329Z,62.02
2019-01-02T06:44:54.051Z,62.02
2019-01-02T06:47:20.763Z,62.41
2019-01-02T06:49:47.498Z,62.03
2019-01-02T06:52:16.223Z,62.03
2019-01-02T06:54:43.045Z,61.75
2019-01-02T06:57:14.209Z,62.09
2019-01-02T06:59:40.961Z,61.78
2019-01-02T07:04:48.266Z,60.89
2019-01-02T07:07:15.417Z,62.23
2019-01-02T07:09:42.847Z,62.20
2019-01-02T07:12:09.700Z,61.81
2019-01-02T07:14:36.440Z,61.81
2019-01-02T07:17:03.358Z,62.03
2019-01-02T07:19:30.078Z,63.24
2019-01-02T07:21:56.786Z,63.24
2019-01-02T07:24:23.788Z,63.14
2019-01-02T07:26:51.810Z,63.82
2019-01-02T07:29:18.695Z,63.53
2019-01-02T07:31:45.426Z,63.53
2019-01-02T07:34:54.349Z,63.82
2019-01-02T07:38:11.478Z,63.82
2019-01-02T07:41:15.606Z,63.56
2019-01-02T07:44:08.879Z,63.42
2019-01-02T07:47:14.332Z,63.40
2019-01-02T07:50:05.714Z,63.40
2019-01-02T07:53:03.075Z,63.60
2019-01-02T07:55:56.055Z,63.26
2019-01-02T07:59:06.785Z,62.87
2019-01-02T08:01:58.683Z,62.87
2019-01-02T08:04:47.344Z,62.82
2019-01-02T08:07:41.392Z,63.10
2019-01-02T08:10:43.093Z,63.02
2019-01-02T08:14:00.736Z,63.15
2019-01-02T08:17:07.756Z,63.64
2019-01-02T08:20:06.811Z,63.76
2019-01-02T08:23:07.947Z,63.92
2019-01-02T08:25:57.899Z,63.96
2019-01-02T08:29:18.639Z,64.40
2019-01-02T08:32:17.850Z,64.83
2019-01-02T08:35:31.126Z,64.90
2019-01-02T08:38:20.233Z,64.59
2019-01-02T08:41:15.954Z,64.59
2019-01-02T08:44:33.870Z,64.78
2019-01-02T08:47:57.989Z,64.78
2019-01-02T08:51:19.206Z,64.58
2019-01-02T08:54:23.948Z,64.34
2019-01-02T08:57:51.191Z,64.34
2019-01-02T09:00:51.811Z,65.20
2019-01-02T09:03:57.352Z,65.20
2019-01-02T09:06:43.573Z,65.25
2019-01-02T09:09:48.056Z,65.46
2019-01-02T09:12:43.383Z,65.34
2019-01-02T09:15:32.327Z,65.53
2019-01-02T09:18:36.659Z,66.02
2019-01-02T09:21:48.784Z,65.86
2019-01-02T09:25:05.898Z,65.86
2019-01-02T09:27:49.901Z,65.82
2019-01-02T09:31:04.880Z,66.16
2019-01-02T09:34:11.563Z,65.46
2019-01-02T09:37:14.250Z,64.94
2019-01-02T09:40:15.381Z,65.10
2019-01-02T09:43:32.749Z,65.31
2019-01-02T09:46:30.583Z,65.31
2019-01-02T09:49:25.011Z,64.76
2019-01-02T09:52:26.094Z,64.76
2019-01-02T09:55:18.571Z,63.87
2019-01-02T09:58:18.407Z,64.15
2019-01-02T10:01:29.082Z,63.00
2019-01-02T10:04:32.425Z,62.95
2019-01-02T10:07:32.703Z,62.23
2019-01-02T10:10:25.023Z,62.14
2019-01-02T10:13:28.784Z,61.41
2019-01-02T10:16:47.892Z,61.41
2019-01-02T10:19:57.594Z,62.44
2019-01-02T10:22:49.275Z,62.44
2019-01-02T10:26:12.289Z,61.81
2019-01-02T10:29:18.656Z,61.03
2019-01-02T10:32:26.754Z,61.03
2019-01-02T10:35:23.800Z,61.80
2019-01-02T10:38:34.279Z,62.34
2019-01-02T10:41:27.177Z,62.34
2019-01-02T10:44:31.874Z,63.44
2019-01-02T10:47:16.708Z,63.58
2019-01-02T10:50:23.964Z,63.58
2019-01-02T10:53:18.310Z,64.58
2019-01-02T10:56:20.490Z,64.26
2019-01-02T10:59:34.510Z,64.26
2019-01-02T11:02:42.331Z,63.62
2019-01-02T11:06:06.807Z,65.90
2019-01-02T11:08:52.555Z,65.90
2019-01-02T11:12:05.927Z,65.84
2019-01-02T11:15:03.324Z,66.04
2019-01-02T11:18:14.551Z,65.91
2019-01-02T11:21:13.864Z,64.65
2019-01-02T11:24:12.078Z,65.61
2019-01-02T11:27:27.472Z,65.52
2019-01-02T11:30:33.765Z,65.52
2019-01-02T11:33:37.855Z,65.44
2019-01-02T11:36:14.296Z,65.44
2019-01-02T11:39:31.575Z,64.26
2019-01-02T11:42:43.430Z,63.21
2019-01-02T11:45:10.878Z,64.20
2019-01-02T11:47:37.614Z,63.48
2019-01-02T11:50:11.325Z,63.48
2019-01-02T11:52:38.289Z,62.74
2019-01-02T11:55:05.700Z,62.74
2019-01-02T11:57:32.488Z,62.89
2019-01-02T11:59:59.240Z,61.75
2019-01-02T12:02:26.156Z,60.29
2019-01-02T12:04:52.841Z,59.79
2019-01-02T12:07:19.703Z,59.79
2019-01-02T12:09:46.988Z,60.11
2019-01-02T12:12:13.743Z,59.25
2019-01-02T12:14:40.957Z,60.24
2019-01-02T12:17:07.674Z,59.31
2019-01-02T12:19:34.547Z,58.94
2019-01-02T12:22:01.408Z,58.94
2019-01-02T12:24:28.893Z,59.80
2019-01-02T12:26:57.999Z,59.80
2019-01-02T12:29:24.750Z,59.63
2019-01-02T12:31:51.480Z,59.63
2019-01-02T12:34:18.185Z,59.85
2019-01-02T12:36:44.899Z,60.31
2019-01-02T12:39:13.867Z,60.42
2019-01-02T12:41:40.601Z,61.23
2019-01-02T12:44:07.684Z,62.19
2019-01-02T12:46:34.861Z,62.21
2019-01-02T12:49:01.737Z,62.21
2019-01-02T12:51:28.470Z,62.26
2019-01-02T12:53:55.869Z,61.96
2019-01-02T12:56:22.597Z,61.43
2019-01-02T12:58:49.638Z,62.63
2019-01-02T13:01:24.061Z,62.89
2019-01-02T13:04:09.697Z,62.65
2019-01-02T13:06:54.697Z,62.65
2019-01-02T13:09:37.176Z,62.61
2019-01-02T13:12:57.047Z,63.50
2019-01-02T13:16:02.693Z,63.50
2019-01-02T13:19:00.914Z,63.17
2019-01-02T13:22:12.928Z,62.60
2019-01-02T13:25:04.505Z,62.24
2019-01-02T13:28:31.955Z,62.24
2019-01-02T13:31:08.749Z,62.76
2019-01-02T13:33:58.728Z,61.43
2019-01-02T13:36:57.774Z,61.42
2019-01-02T13:39:35.410Z,60.79
2019-01-02T13:42:28.732Z,61.16
2019-01-02T13:45:18.543Z,61.33
2019-01-02T13:48:38.337Z,61.33
2019-01-02T13:51:09.640Z,61.51
2019-01-02T13:53:36.347Z,61.31
2019-01-02T13:56:04.675Z,61.65
2019-01-02T13:58:31.784Z,61.77
2019-01-02T14:01:00.530Z,61.67
2019-01-02T14:03:27.394Z,61.67
2019-01-02T14:05:54.153Z,61.40
2019-01-02T14:08:20.922Z,61.76
2019-01-02T14:10:47.748Z,61.88
2019-01-02T14:13:14.503Z,62.19
2019-01-02T14:15:44.943Z,62.79
2019-01-02T14:18:11.632Z,62.79
2019-01-02T14:20:38.406Z,62.70
2019-01-02T14:23:05.240Z,62.81
2019-01-02T14:25:31.979Z,62.79
2019-01-02T14:27:58.736Z,62.72
2019-01-02T14:30:25.534Z,62.49
2019-01-02T14:32:52.302Z,62.49
2019-01-02T14:35:22.409Z,62.31
2019-01-02T14:37:47.975Z,61.03
2019-01-02T14:40:15.308Z,61.43
2019-01-02T14:42:42.089Z,61.43
2019-01-02T14:45:08.986Z,59.33
2019-01-02T14:47:35.973Z,58.81
2019-01-02T14:50:03.621Z,57.92
2019-01-02T14:52:30.375Z,58.56
2019-01-02T14:54:57.250Z,58.46
2019-01-02T14:57:24.263Z,58.46
2019-01-02T14:59:50.989Z,57.78
2019-01-02T15:02:17.816Z,57.78
2019-01-02T15:04:46.518Z,57.45
2019-01-02T15:07:13.709Z,57.28
2019-01-02T15:09:40.722Z,58.34
2019-01-02T15:12:08.102Z,56.76
2019-01-02T15:14:34.833Z,56.83
2019-01-02T15:17:01.787Z,56.75
2019-01-02T15:19:28.622Z,56.75
2019-01-02T15:21:55.476Z,56.75
2019-01-02T15:24:23.610Z,56.71
2019-01-02T15:26:50.388Z,57.11
2019-01-02T15:29:17.146Z,57.11
2019-01-02T15:31:44.024Z,57.17
2019-01-02T15:34:13.936Z,57.51
2019-01-02T15:36:40.705Z,58.11
2019-01-02T15:39:09.467Z,58.35
2019-01-02T15:41:36.949Z,59.37
2019-01-02T15:44:03.691Z,59.37
2019-01-02T15:46:30.612Z,59.25
2019-01-02T15:48:57.509Z,59.53
2019-01-02T15:51:24.376Z,59.60
2019-01-02T15:53:51.143Z,60.17
2019-01-02T15:56:18.013Z,60.17
2019-01-02T15:58:44.941Z,59.62
2019-01-02T16:01:31.403Z,59.44
2019-01-02T16:03:58.122Z,59.67
2019-01-02T16:06:27.463Z,59.54
2019-01-02T16:08:54.423Z,59.29
2019-01-02T16:11:21.161Z,59.29
2019-01-02T16:13:48.060Z,59.26
2019-01-02T16:16:14.895Z,59.33
2019-01-02T16:18:43.140Z,59.83
2019-01-02T16:21:10.047Z,58.90
2019-01-02T16:23:36.860Z,59.50
2019-01-02T16:26:03.611Z,59.50
2019-01-02T16:28:30.429Z,59.30
2019-01-02T16:30:59.509Z,58.85
2019-01-02T16:33:26.240Z,58.52
2019-01-02T16:35:55.057Z,58.83
2019-01-02T16:38:21.806Z,58.94
2019-01-02T16:40:48.943Z,58.97
2019-01-02T16:43:16.109Z,59.26
2019-01-02T16:45:45.003Z,59.26
2019-01-02T16:48:11.846Z,59.10
2019-01-02T16:50:38.594Z,58.83
2019-01-02T16:53:06.177Z,58.56
2019-01-02T16:55:32.913Z,58.56
2019-01-02T16:57:59.634Z,59.29
2019-01-02T17:00:26.477Z,59.57
2019-01-02T17:02:53.593Z,59.57
2019-01-02T17:05:20.627Z,59.76
2019-01-02T17:07:47.395Z,59.72
2019-01-02T17:10:14.300Z,59.80
2019-01-02T17:12:41.060Z,59.98
2019-01-02T17:15:07.813Z,59.97
2019-01-02T17:17:34.565Z,60.10
2019-01-02T17:20:02.011Z,60.10
2019-01-02T17:22:28.742Z,59.41
2019-01-02T17:24:55.481Z,59.59
2019-01-02T17:27:22.585Z,59.59
2019-01-02T17:29:49.777Z,59.92
2019-01-02T17:32:17.629Z,60.37
2019-01-02T17:34:44.355Z,60.64
2019-01-02T17:37:11.213Z,60.35
2019-01-02T17:39:38.060Z,60.35
2019-01-02T17:42:04.801Z,61.33
2019-01-02T17:44:32.110Z,61.77
2019-01-02T17:46:58.844Z,61.81
2019-01-02T17:49:25.725Z,61.81
2019-01-02T17:51:52.440Z,62.25
2019-01-02T17:54:19.477Z,61.84
2019-01-02T17:56:46.311Z,61.84
2019-01-02T17:59:13.062Z,61.75
2019-01-02T18:01:39.810Z,61.64
2019-01-02T18:04:06.524Z,61.64
2019-01-02T18:06:33.260Z,61.88
2019-01-02T18:09:00.001Z,62.68
2019-01-02T18:11:27.301Z,62.68
2019-01-02T18:13:54.226Z,62.85
2019-01-02T18:16:21.132Z,62.85
2019-01-02T18:18:48.111Z,63.55
2019-01-02T18:21:15.211Z,63.55
2019-01-02T18:23:42.591Z,63.28
2019-01-02T18:26:09.464Z,63.31
2019-01-02T18:28:36.577Z,63.31
2019-01-02T18:31:03.338Z,63.24
2019-01-02T18:33:30.145Z,64.11
2019-01-02T18:36:00.929Z,65.80
2019-01-02T18:38:28.002Z,65.80
2019-01-02T18:40:55.031Z,65.65
2019-01-02T18:43:21.762Z,65.65
2019-01-02T18:45:48.461Z,65.67
2019-01-02T18:48:17.417Z,65.95
2019-01-02T18:50:44.144Z,65.74
2019-01-02T18:53:10.940Z,65.75
2019-01-02T18:55:37.670Z,65.76
2019-01-02T18:58:04.433Z,66.47
2019-01-02T19:00:31.339Z,66.46
2019-01-02T19:02:58.252Z,66.66
2019-01-02T19:05:25.124Z,66.42
2019-01-02T19:07:51.933Z,66.42
2019-01-02T19:10:18.811Z,66.61
2019-01-02T19:12:45.551Z,66.41
2019-01-02T19:15:12.304Z,66.20
2019-01-02T19:17:39.037Z,66.08
2019-01-02T19:20:05.846Z,67.42
2019-01-02T19:22:32.700Z,67.42
2019-01-02T19:24:59.518Z,67.22
2019-01-02T19:27:26.267Z,66.81
2019-01-02T19:29:54.246Z,66.52
2019-01-02T19:32:20.966Z,66.47
2019-01-02T19:34:48.039Z,66.65
2019-01-02T19:37:15.151Z,67.62
2019-01-02T19:39:42.234Z,67.62
2019-01-02T19:42:09.004Z,67.59
2019-01-02T19:44:35.823Z,67.63
2019-01-02T19:47:02.886Z,67.94
2019-01-02T19:49:29.828Z,67.97
2019-01-02T19:51:59.243Z,67.97
2019-01-02T19:54:26.042Z,69.53
2019-01-02T19:56:52.921Z,71.65
2019-01-02T19:59:19.983Z,71.65
2019-01-02T20:01:46.867Z,71.75
2019-01-02T20:04:13.737Z,70.56
2019-01-02T20:06:40.579Z,70.34
2019-01-02T20:09:08.904Z,70.67
2019-01-02T20:11:35.628Z,70.69
2019-01-02T20:14:02.368Z,71.38
2019-01-02T20:16:29.077Z,71.59
2019-01-02T20:18:55.817Z,72.36
2019-01-02T20:21:22.659Z,72.54
2019-01-02T20:23:49.526Z,72.98
2019-01-02T20:26:18.731Z,72.77
2019-01-02T20:28:45.451Z,71.73
2019-01-02T20:31:12.196Z,71.16
2019-01-02T20:33:38.923Z,71.10
2019-01-02T20:36:05.978Z,71.22
2019-01-02T20:38:32.763Z,71.39
2019-01-02T20:40:59.587Z,71.67
2019-01-02T20:43:26.515Z,71.89
2019-01-02T20:45:53.342Z,71.91
2019-01-02T20:48:20.084Z,71.13
2019-01-02T20:50:46.840Z,71.37
2019-01-02T20:53:13.712Z,71.68
2019-01-02T20:55:41.943Z,72.23
2019-01-02T20:58:10.996Z,71.82
2019-01-02T21:00:37.720Z,72.15
2019-01-02T21:03:04.497Z,72.57
2019-01-02T21:05:31.561Z,72.61
2019-01-02T21:07:58.435Z,72.80
2019-01-02T21:10:25.208Z,72.33
2019-01-02T21:12:51.967Z,72.85
2019-01-02T21:15:18.708Z,72.90
2019-01-02T21:17:45.536Z,73.06
2019-01-02T21:20:12.399Z,72.81
2019-01-02T21:22:39.149Z,72.71
2019-01-02T21:25:06.724Z,73.16
2019-01-02T21:27:33.464Z,73.13
2019-01-02T21:30:00.263Z,73.06
2019-01-02T21:32:26.944Z,72.88
2019-01-02T21:34:53.638Z,73.05
2019-01-02T21:37:23.177Z,73.36
2019-01-02T21:39:50.301Z,73.25
2019-01-02T21:42:17.202Z,73.66
2019-01-02T21:44:43.949Z,73.98
2019-01-02T21:47:11.189Z,73.90
2019-01-02T21:49:37.903Z,73.67
2019-01-02T21:52:04.681Z,73.70
2019-01-02T21:54:31.578Z,73.91
2019-01-02T21:56:58.354Z,73.60
2019-01-02T21:59:25.214Z,73.71
2019-01-02T22:01:51.956Z,74.11
2019-01-02T22:04:18.720Z,74.35
2019-01-02T22:06:45.735Z,74.73
2019-01-02T22:09:12.561Z,74.92
2019-01-02T22:11:39.274Z,74.86
2019-01-02T22:14:06.033Z,74.86
2019-01-02T22:16:35.613Z,74.74
2019-01-02T22:19:02.518Z,74.83
2019-01-02T22:21:29.323Z,74.74
2019-01-02T22:23:56.052Z,74.79
2019-01-02T22:26:22.900Z,74.67
2019-01-02T22:28:49.682Z,74.94
2019-01-02T22:31:16.742Z,75.04
2019-01-02T22:33:43.512Z,75.29
2019-01-02T22:36:10.360Z,75.15
2019-01-02T22:38:37.161Z,75.19
2019-01-02T22:41:04.107Z,75.07
2019-01-02T22:43:30.871Z,75.55
2019-01-02T22:45:57.945Z,75.82
2019-01-02T22:48:24.980Z,75.38
2019-01-02T22:50:51.665Z,75.38
2019-01-02T22:53:18.375Z,75.20
2019-01-02T22:55:47.291Z,74.61
2019-01-02T22:58:13.985Z,74.66
2019-01-02T23:00:59.287Z,74.38
2019-01-02T23:03:48.964Z,74.00
2019-01-02T23:06:35.335Z,74.29
2019-01-02T23:09:33.530Z,74.54
2019-01-02T23:12:18.243Z,74.69
2019-01-02T23:15:03.072Z,75.04
2019-01-02T23:17:46.852Z,74.76
2019-01-02T23:20:32.077Z,74.46
2019-01-02T23:23:36.551Z,74.54
2019-01-02T23:26:21.446Z,74.47
2019-01-02T23:29:16.008Z,74.73
2019-01-02T23:32:00.801Z,74.31
2019-01-02T23:34:46.160Z,73.79
2019-01-02T23:37:37.557Z,74.33
2019-01-02T23:40:23.031Z,73.99
2019-01-02T23:43:27.958Z,73.90
2019-01-02T23:46:20.213Z,73.75
2019-01-02T23:49:05.191Z,74.46
2019-01-02T23:52:06.413Z,74.19
2019-01-02T23:54:51.070Z,73.44
2019-01-02T23:57:41.347Z,74.35
